sensor_id;sensor_type;location;lat;lon;timestamp;P1;durP1;ratioP1;P2;durP2;ratioP2
60851;SDS011;48553;50.766;2.900;2024-02-21T00:02:45;6.45;;;3.15;;
60851;SDS011;48553;50.766;2.900;2024-02-21T00:05:46;7.60;;;3.35;;
60851;SDS011;48553;50.766;2.900;2024-02-21T00:08:46;6.03;;;3.10;;
60851;SDS011;48553;50.766;2.900;2024-02-21T00:11:46;7.70;;;3.28;;
60851;SDS011;48553;50.766;2.900;2024-02-21T00:14:47;6.75;;;3.25;;
60851;SDS011;48553;50.766;2.900;2024-02-21T00:17:48;6.57;;;3.45;;
60851;SDS011;48553;50.766;2.900;2024-02-21T00:20:48;7.57;;;3.30;;
60851;SDS011;48553;50.766;2.900;2024-02-21T00:23:49;9.88;;;3.80;;
60851;SDS011;48553;50.766;2.900;2024-02-21T00:26:50;8.02;;;3.58;;
60851;SDS011;48553;50.766;2.900;2024-02-21T00:29:51;8.48;;;3.53;;
60851;SDS011;48553;50.766;2.900;2024-02-21T00:32:51;9.65;;;4.18;;
60851;SDS011;48553;50.766;2.900;2024-02-21T00:35:51;8.38;;;3.83;;
60851;SDS011;48553;50.766;2.900;2024-02-21T00:38:52;10.43;;;4.55;;
60851;SDS011;48553;50.766;2.900;2024-02-21T00:41:52;8.55;;;3.92;;
60851;SDS011;48553;50.766;2.900;2024-02-21T00:44:53;7.80;;;3.88;;
60851;SDS011;48553;50.766;2.900;2024-02-21T00:47:53;8.15;;;4.00;;
60851;SDS011;48553;50.766;2.900;2024-02-21T00:50:54;8.65;;;4.20;;
60851;SDS011;48553;50.766;2.900;2024-02-21T00:53:54;9.25;;;4.53;;
60851;SDS011;48553;50.766;2.900;2024-02-21T00:56:55;11.68;;;4.70;;
60851;SDS011;48553;50.766;2.900;2024-02-21T00:59:55;10.25;;;4.97;;
60851;SDS011;48553;50.766;2.900;2024-02-21T01:02:55;11.63;;;5.13;;
60851;SDS011;48553;50.766;2.900;2024-02-21T01:05:56;12.20;;;5.50;;
60851;SDS011;48553;50.766;2.900;2024-02-21T01:08:56;16.10;;;6.57;;
60851;SDS011;48553;50.766;2.900;2024-02-21T01:11:57;13.35;;;5.53;;
60851;SDS011;48553;50.766;2.900;2024-02-21T01:14:57;14.48;;;6.40;;
60851;SDS011;48553;50.766;2.900;2024-02-21T01:17:58;11.85;;;5.95;;
60851;SDS011;48553;50.766;2.900;2024-02-21T01:20:58;13.52;;;6.13;;
60851;SDS011;48553;50.766;2.900;2024-02-21T01:23:59;12.35;;;6.30;;
60851;SDS011;48553;50.766;2.900;2024-02-21T01:26:59;12.00;;;5.70;;
60851;SDS011;48553;50.766;2.900;2024-02-21T01:30:00;14.13;;;6.15;;
60851;SDS011;48553;50.766;2.900;2024-02-21T01:33:00;18.05;;;6.57;;
60851;SDS011;48553;50.766;2.900;2024-02-21T01:36:01;17.02;;;6.78;;
60851;SDS011;48553;50.766;2.900;2024-02-21T01:39:02;17.80;;;6.28;;
60851;SDS011;48553;50.766;2.900;2024-02-21T01:42:03;13.38;;;6.50;;
60851;SDS011;48553;50.766;2.900;2024-02-21T01:45:03;15.90;;;6.97;;
60851;SDS011;48553;50.766;2.900;2024-02-21T01:48:04;13.68;;;5.90;;
60851;SDS011;48553;50.766;2.900;2024-02-21T01:51:05;18.77;;;6.50;;
60851;SDS011;48553;50.766;2.900;2024-02-21T01:54:05;14.30;;;6.13;;
60851;SDS011;48553;50.766;2.900;2024-02-21T01:57:06;15.57;;;6.38;;
60851;SDS011;48553;50.766;2.900;2024-02-21T02:00:07;20.02;;;6.97;;
60851;SDS011;48553;50.766;2.900;2024-02-21T02:03:10;16.38;;;6.22;;
60851;SDS011;48553;50.766;2.900;2024-02-21T02:06:16;21.65;;;6.65;;
60851;SDS011;48553;50.766;2.900;2024-02-21T02:09:17;18.58;;;6.15;;
60851;SDS011;48553;50.766;2.900;2024-02-21T02:12:17;16.98;;;6.05;;
60851;SDS011;48553;50.766;2.900;2024-02-21T02:15:17;20.05;;;6.50;;
60851;SDS011;48553;50.766;2.900;2024-02-21T02:18:19;18.17;;;6.70;;
60851;SDS011;48553;50.766;2.900;2024-02-21T02:21:26;17.67;;;6.38;;
60851;SDS011;48553;50.766;2.900;2024-02-21T02:24:30;15.73;;;6.35;;
60851;SDS011;48553;50.766;2.900;2024-02-21T02:27:30;17.88;;;6.38;;
60851;SDS011;48553;50.766;2.900;2024-02-21T02:30:37;14.00;;;6.47;;
60851;SDS011;48553;50.766;2.900;2024-02-21T02:33:37;25.45;;;7.10;;
60851;SDS011;48553;50.766;2.900;2024-02-21T02:36:37;20.58;;;6.88;;
60851;SDS011;48553;50.766;2.900;2024-02-21T02:39:38;19.95;;;7.18;;
60851;SDS011;48553;50.766;2.900;2024-02-21T02:42:38;18.38;;;6.97;;
60851;SDS011;48553;50.766;2.900;2024-02-21T02:45:39;19.55;;;7.15;;
60851;SDS011;48553;50.766;2.900;2024-02-21T02:48:39;15.38;;;6.55;;
60851;SDS011;48553;50.766;2.900;2024-02-21T02:51:43;18.92;;;6.85;;
60851;SDS011;48553;50.766;2.900;2024-02-21T02:54:44;17.75;;;7.40;;
60851;SDS011;48553;50.766;2.900;2024-02-21T02:57:45;17.42;;;7.38;;
60851;SDS011;48553;50.766;2.900;2024-02-21T03:00:45;18.30;;;7.35;;
60851;SDS011;48553;50.766;2.900;2024-02-21T03:03:46;18.92;;;7.10;;
60851;SDS011;48553;50.766;2.900;2024-02-21T03:06:47;19.65;;;7.00;;
60851;SDS011;48553;50.766;2.900;2024-02-21T03:09:47;17.92;;;7.30;;
60851;SDS011;48553;50.766;2.900;2024-02-21T03:12:48;19.83;;;7.57;;
60851;SDS011;48553;50.766;2.900;2024-02-21T03:15:48;19.67;;;7.03;;
60851;SDS011;48553;50.766;2.900;2024-02-21T03:18:49;20.63;;;7.72;;
60851;SDS011;48553;50.766;2.900;2024-02-21T03:21:49;19.45;;;7.18;;
60851;SDS011;48553;50.766;2.900;2024-02-21T03:24:50;17.13;;;6.78;;
60851;SDS011;48553;50.766;2.900;2024-02-21T03:27:50;20.30;;;7.40;;
60851;SDS011;48553;50.766;2.900;2024-02-21T03:30:51;23.58;;;6.70;;
60851;SDS011;48553;50.766;2.900;2024-02-21T03:33:52;20.25;;;6.75;;
60851;SDS011;48553;50.766;2.900;2024-02-21T03:36:52;19.05;;;7.38;;
60851;SDS011;48553;50.766;2.900;2024-02-21T03:39:53;19.63;;;7.28;;
60851;SDS011;48553;50.766;2.900;2024-02-21T03:42:53;17.05;;;7.13;;
60851;SDS011;48553;50.766;2.900;2024-02-21T03:45:54;17.42;;;7.00;;
60851;SDS011;48553;50.766;2.900;2024-02-21T03:48:54;17.83;;;7.10;;
60851;SDS011;48553;50.766;2.900;2024-02-21T03:51:55;19.45;;;7.18;;
60851;SDS011;48553;50.766;2.900;2024-02-21T03:54:55;18.42;;;6.97;;
60851;SDS011;48553;50.766;2.900;2024-02-21T03:57:56;17.65;;;6.70;;
60851;SDS011;48553;50.766;2.900;2024-02-21T04:00:56;17.98;;;7.30;;
60851;SDS011;48553;50.766;2.900;2024-02-21T04:03:57;26.55;;;7.40;;
60851;SDS011;48553;50.766;2.900;2024-02-21T04:06:57;15.85;;;6.85;;
60851;SDS011;48553;50.766;2.900;2024-02-21T04:09:58;18.85;;;7.50;;
60851;SDS011;48553;50.766;2.900;2024-02-21T04:12:58;20.45;;;7.38;;
60851;SDS011;48553;50.766;2.900;2024-02-21T04:15:59;21.40;;;7.45;;
60851;SDS011;48553;50.766;2.900;2024-02-21T04:19:01;15.52;;;7.45;;
60851;SDS011;48553;50.766;2.900;2024-02-21T04:22:02;15.82;;;6.85;;
60851;SDS011;48553;50.766;2.900;2024-02-21T04:25:02;18.58;;;7.30;;
60851;SDS011;48553;50.766;2.900;2024-02-21T04:28:03;18.08;;;6.88;;
60851;SDS011;48553;50.766;2.900;2024-02-21T04:31:04;19.45;;;7.47;;
60851;SDS011;48553;50.766;2.900;2024-02-21T04:34:06;18.33;;;7.22;;
60851;SDS011;48553;50.766;2.900;2024-02-21T04:37:06;22.52;;;7.10;;
60851;SDS011;48553;50.766;2.900;2024-02-21T04:40:07;16.48;;;6.82;;
60851;SDS011;48553;50.766;2.900;2024-02-21T04:43:08;18.88;;;6.97;;
60851;SDS011;48553;50.766;2.900;2024-02-21T04:46:08;17.65;;;7.40;;
60851;SDS011;48553;50.766;2.900;2024-02-21T04:49:09;19.50;;;7.20;;
60851;SDS011;48553;50.766;2.900;2024-02-21T04:52:10;17.23;;;6.90;;
60851;SDS011;48553;50.766;2.900;2024-02-21T04:55:10;16.42;;;7.30;;
60851;SDS011;48553;50.766;2.900;2024-02-21T04:58:11;17.67;;;6.88;;
60851;SDS011;48553;50.766;2.900;2024-02-21T05:01:12;19.15;;;7.18;;
60851;SDS011;48553;50.766;2.900;2024-02-21T05:04:12;18.30;;;7.65;;
60851;SDS011;48553;50.766;2.900;2024-02-21T05:07:13;16.75;;;7.35;;
60851;SDS011;48553;50.766;2.900;2024-02-21T05:10:13;15.68;;;6.70;;
60851;SDS011;48553;50.766;2.900;2024-02-21T05:13:14;18.13;;;6.85;;
60851;SDS011;48553;50.766;2.900;2024-02-21T05:16:15;22.85;;;7.13;;
60851;SDS011;48553;50.766;2.900;2024-02-21T05:19:16;16.48;;;6.82;;
60851;SDS011;48553;50.766;2.900;2024-02-21T05:22:16;19.80;;;7.03;;
60851;SDS011;48553;50.766;2.900;2024-02-21T05:25:17;17.23;;;7.40;;
60851;SDS011;48553;50.766;2.900;2024-02-21T05:28:17;17.95;;;7.28;;
60851;SDS011;48553;50.766;2.900;2024-02-21T05:31:18;15.25;;;6.78;;
60851;SDS011;48553;50.766;2.900;2024-02-21T05:34:19;17.52;;;6.82;;
60851;SDS011;48553;50.766;2.900;2024-02-21T05:37:20;17.38;;;6.63;;
60851;SDS011;48553;50.766;2.900;2024-02-21T05:40:20;16.48;;;6.68;;
60851;SDS011;48553;50.766;2.900;2024-02-21T05:43:21;16.55;;;7.10;;
60851;SDS011;48553;50.766;2.900;2024-02-21T05:46:21;17.30;;;6.90;;
60851;SDS011;48553;50.766;2.900;2024-02-21T05:49:22;19.80;;;6.60;;
60851;SDS011;48553;50.766;2.900;2024-02-21T05:52:22;16.35;;;6.88;;
60851;SDS011;48553;50.766;2.900;2024-02-21T05:55:23;14.38;;;6.50;;
60851;SDS011;48553;50.766;2.900;2024-02-21T05:58:23;14.32;;;6.40;;
60851;SDS011;48553;50.766;2.900;2024-02-21T06:01:24;15.90;;;6.43;;
60851;SDS011;48553;50.766;2.900;2024-02-21T06:04:25;16.90;;;6.78;;
60851;SDS011;48553;50.766;2.900;2024-02-21T06:07:25;12.98;;;5.75;;
60851;SDS011;48553;50.766;2.900;2024-02-21T06:10:26;16.98;;;6.20;;
60851;SDS011;48553;50.766;2.900;2024-02-21T06:13:26;15.18;;;6.00;;
60851;SDS011;48553;50.766;2.900;2024-02-21T06:16:27;13.43;;;6.22;;
60851;SDS011;48553;50.766;2.900;2024-02-21T06:19:27;13.88;;;6.10;;
60851;SDS011;48553;50.766;2.900;2024-02-21T06:22:28;12.35;;;5.78;;
60851;SDS011;48553;50.766;2.900;2024-02-21T06:25:30;12.80;;;6.30;;
60851;SDS011;48553;50.766;2.900;2024-02-21T06:28:30;13.38;;;6.13;;
60851;SDS011;48553;50.766;2.900;2024-02-21T06:31:31;16.13;;;6.03;;
60851;SDS011;48553;50.766;2.900;2024-02-21T06:34:32;12.73;;;5.70;;
60851;SDS011;48553;50.766;2.900;2024-02-21T06:37:32;16.90;;;5.70;;
60851;SDS011;48553;50.766;2.900;2024-02-21T06:40:33;17.38;;;6.30;;
60851;SDS011;48553;50.766;2.900;2024-02-21T06:43:38;12.55;;;5.60;;
60851;SDS011;48553;50.766;2.900;2024-02-21T06:46:39;15.80;;;6.18;;
60851;SDS011;48553;50.766;2.900;2024-02-21T06:49:39;16.52;;;6.18;;
60851;SDS011;48553;50.766;2.900;2024-02-21T06:52:39;15.93;;;5.85;;
60851;SDS011;48553;50.766;2.900;2024-02-21T06:55:40;13.60;;;5.85;;
60851;SDS011;48553;50.766;2.900;2024-02-21T06:58:40;13.38;;;5.45;;
60851;SDS011;48553;50.766;2.900;2024-02-21T07:01:45;12.70;;;6.10;;
60851;SDS011;48553;50.766;2.900;2024-02-21T07:04:49;11.48;;;5.82;;
60851;SDS011;48553;50.766;2.900;2024-02-21T07:07:49;12.60;;;5.65;;
60851;SDS011;48553;50.766;2.900;2024-02-21T07:10:50;11.70;;;6.38;;
60851;SDS011;48553;50.766;2.900;2024-02-21T07:13:50;13.90;;;5.88;;
60851;SDS011;48553;50.766;2.900;2024-02-21T07:16:52;11.98;;;6.20;;
60851;SDS011;48553;50.766;2.900;2024-02-21T07:19:53;12.82;;;6.00;;
60851;SDS011;48553;50.766;2.900;2024-02-21T07:22:56;14.38;;;5.97;;
60851;SDS011;48553;50.766;2.900;2024-02-21T07:25:57;15.70;;;6.63;;
60851;SDS011;48553;50.766;2.900;2024-02-21T07:28:57;13.40;;;6.03;;
60851;SDS011;48553;50.766;2.900;2024-02-21T07:31:58;16.17;;;6.18;;
60851;SDS011;48553;50.766;2.900;2024-02-21T07:34:58;12.77;;;6.30;;
60851;SDS011;48553;50.766;2.900;2024-02-21T07:37:59;13.93;;;6.30;;
60851;SDS011;48553;50.766;2.900;2024-02-21T07:40:59;14.75;;;5.95;;
60851;SDS011;48553;50.766;2.900;2024-02-21T07:44:00;12.98;;;6.03;;
60851;SDS011;48553;50.766;2.900;2024-02-21T07:47:00;13.25;;;6.22;;
60851;SDS011;48553;50.766;2.900;2024-02-21T07:50:01;18.88;;;6.70;;
60851;SDS011;48553;50.766;2.900;2024-02-21T07:53:02;18.10;;;5.97;;
60851;SDS011;48553;50.766;2.900;2024-02-21T07:56:03;15.90;;;6.43;;
60851;SDS011;48553;50.766;2.900;2024-02-21T07:59:04;13.25;;;5.90;;
60851;SDS011;48553;50.766;2.900;2024-02-21T08:02:04;13.55;;;6.03;;
60851;SDS011;48553;50.766;2.900;2024-02-21T08:05:06;14.38;;;6.68;;
60851;SDS011;48553;50.766;2.900;2024-02-21T08:08:07;16.02;;;6.80;;
60851;SDS011;48553;50.766;2.900;2024-02-21T08:11:08;17.05;;;6.70;;
60851;SDS011;48553;50.766;2.900;2024-02-21T08:14:08;14.80;;;7.18;;
60851;SDS011;48553;50.766;2.900;2024-02-21T08:17:09;18.15;;;7.32;;
60851;SDS011;48553;50.766;2.900;2024-02-21T08:20:09;14.02;;;7.43;;
60851;SDS011;48553;50.766;2.900;2024-02-21T08:23:10;16.92;;;7.18;;
60851;SDS011;48553;50.766;2.900;2024-02-21T08:26:11;18.67;;;7.68;;
60851;SDS011;48553;50.766;2.900;2024-02-21T08:29:11;17.67;;;8.35;;
60851;SDS011;48553;50.766;2.900;2024-02-21T08:32:12;18.08;;;7.57;;
60851;SDS011;48553;50.766;2.900;2024-02-21T08:35:13;17.92;;;8.40;;
60851;SDS011;48553;50.766;2.900;2024-02-21T08:38:13;20.38;;;8.38;;
60851;SDS011;48553;50.766;2.900;2024-02-21T08:41:14;17.95;;;8.20;;
60851;SDS011;48553;50.766;2.900;2024-02-21T08:44:14;19.30;;;8.32;;
60851;SDS011;48553;50.766;2.900;2024-02-21T08:47:14;20.17;;;8.30;;
60851;SDS011;48553;50.766;2.900;2024-02-21T08:50:15;17.20;;;8.88;;
60851;SDS011;48553;50.766;2.900;2024-02-21T08:53:15;19.95;;;8.73;;
60851;SDS011;48553;50.766;2.900;2024-02-21T08:56:16;20.73;;;9.25;;
60851;SDS011;48553;50.766;2.900;2024-02-21T08:59:16;22.27;;;9.52;;
60851;SDS011;48553;50.766;2.900;2024-02-21T09:02:17;19.23;;;8.90;;
60851;SDS011;48553;50.766;2.900;2024-02-21T09:05:17;21.35;;;9.45;;
60851;SDS011;48553;50.766;2.900;2024-02-21T09:08:18;18.27;;;9.40;;
60851;SDS011;48553;50.766;2.900;2024-02-21T09:11:19;16.38;;;9.23;;
60851;SDS011;48553;50.766;2.900;2024-02-21T09:14:19;21.02;;;8.65;;
60851;SDS011;48553;50.766;2.900;2024-02-21T09:17:20;20.48;;;8.93;;
60851;SDS011;48553;50.766;2.900;2024-02-21T09:20:20;18.60;;;8.93;;
60851;SDS011;48553;50.766;2.900;2024-02-21T09:23:23;20.65;;;9.07;;
60851;SDS011;48553;50.766;2.900;2024-02-21T09:26:24;18.70;;;8.57;;
60851;SDS011;48553;50.766;2.900;2024-02-21T09:29:24;22.35;;;8.80;;
60851;SDS011;48553;50.766;2.900;2024-02-21T09:32:25;22.65;;;9.05;;
60851;SDS011;48553;50.766;2.900;2024-02-21T09:35:26;15.18;;;8.20;;
60851;SDS011;48553;50.766;2.900;2024-02-21T09:38:27;13.38;;;7.55;;
60851;SDS011;48553;50.766;2.900;2024-02-21T09:41:28;17.88;;;7.60;;
60851;SDS011;48553;50.766;2.900;2024-02-21T09:44:31;14.90;;;7.60;;
60851;SDS011;48553;50.766;2.900;2024-02-21T09:51:11;14.98;;;7.38;;
60851;SDS011;48553;50.766;2.900;2024-02-21T09:54:14;14.52;;;7.07;;
60851;SDS011;48553;50.766;2.900;2024-02-21T09:57:14;16.35;;;7.25;;
60851;SDS011;48553;50.766;2.900;2024-02-21T10:00:16;15.50;;;7.30;;
60851;SDS011;48553;50.766;2.900;2024-02-21T10:03:21;16.95;;;6.82;;
60851;SDS011;48553;50.766;2.900;2024-02-21T10:06:22;18.98;;;7.00;;
60851;SDS011;48553;50.766;2.900;2024-02-21T10:09:26;14.77;;;6.38;;
60851;SDS011;48553;50.766;2.900;2024-02-21T10:12:28;12.18;;;6.22;;
60851;SDS011;48553;50.766;2.900;2024-02-21T10:15:28;15.98;;;6.28;;
60851;SDS011;48553;50.766;2.900;2024-02-21T10:18:28;14.15;;;6.18;;
60851;SDS011;48553;50.766;2.900;2024-02-21T10:21:29;13.93;;;7.15;;
60851;SDS011;48553;50.766;2.900;2024-02-21T10:24:30;17.17;;;7.25;;
60851;SDS011;48553;50.766;2.900;2024-02-21T10:27:32;15.32;;;6.70;;
60851;SDS011;48553;50.766;2.900;2024-02-21T10:30:32;14.63;;;6.82;;
60851;SDS011;48553;50.766;2.900;2024-02-21T10:33:33;14.40;;;6.85;;
60851;SDS011;48553;50.766;2.900;2024-02-21T10:36:33;16.52;;;7.22;;
60851;SDS011;48553;50.766;2.900;2024-02-21T10:39:36;13.45;;;7.15;;
60851;SDS011;48553;50.766;2.900;2024-02-21T10:42:38;14.13;;;7.28;;
60851;SDS011;48553;50.766;2.900;2024-02-21T10:45:39;16.42;;;7.30;;
60851;SDS011;48553;50.766;2.900;2024-02-21T10:48:42;14.13;;;7.05;;
60851;SDS011;48553;50.766;2.900;2024-02-21T10:55:03;15.43;;;7.85;;
60851;SDS011;48553;50.766;2.900;2024-02-21T10:58:09;22.33;;;8.73;;
60851;SDS011;48553;50.766;2.900;2024-02-21T11:01:12;15.43;;;7.55;;
60851;SDS011;48553;50.766;2.900;2024-02-21T11:04:15;14.63;;;7.35;;
60851;SDS011;48553;50.766;2.900;2024-02-21T11:07:16;15.38;;;7.57;;
60851;SDS011;48553;50.766;2.900;2024-02-21T11:10:20;14.50;;;7.70;;
60851;SDS011;48553;50.766;2.900;2024-02-21T11:13:30;18.13;;;7.68;;
60851;SDS011;48553;50.766;2.900;2024-02-21T11:16:36;14.43;;;7.75;;
60851;SDS011;48553;50.766;2.900;2024-02-21T11:19:41;15.60;;;7.47;;
60851;SDS011;48553;50.766;2.900;2024-02-21T11:22:41;17.48;;;7.65;;
60851;SDS011;48553;50.766;2.900;2024-02-21T11:25:43;16.33;;;7.25;;
60851;SDS011;48553;50.766;2.900;2024-02-21T11:28:43;14.88;;;7.68;;
60851;SDS011;48553;50.766;2.900;2024-02-21T11:31:44;14.05;;;7.25;;
60851;SDS011;48553;50.766;2.900;2024-02-21T11:38:11;15.27;;;7.38;;
60851;SDS011;48553;50.766;2.900;2024-02-21T11:41:16;14.18;;;6.82;;
60851;SDS011;48553;50.766;2.900;2024-02-21T11:44:16;14.35;;;6.97;;
60851;SDS011;48553;50.766;2.900;2024-02-21T11:47:17;11.32;;;6.60;;
60851;SDS011;48553;50.766;2.900;2024-02-21T11:50:17;13.43;;;6.45;;
60851;SDS011;48553;50.766;2.900;2024-02-21T11:53:18;12.60;;;6.45;;
60851;SDS011;48553;50.766;2.900;2024-02-21T11:56:20;13.82;;;6.60;;
60851;SDS011;48553;50.766;2.900;2024-02-21T11:59:20;12.52;;;5.82;;
60851;SDS011;48553;50.766;2.900;2024-02-21T12:02:21;15.02;;;6.40;;
60851;SDS011;48553;50.766;2.900;2024-02-21T12:05:21;10.77;;;5.90;;
60851;SDS011;48553;50.766;2.900;2024-02-21T12:08:22;10.23;;;5.43;;
60851;SDS011;48553;50.766;2.900;2024-02-21T12:11:22;9.50;;;5.90;;
60851;SDS011;48553;50.766;2.900;2024-02-21T12:14:24;9.98;;;4.90;;
60851;SDS011;48553;50.766;2.900;2024-02-21T12:17:25;10.27;;;5.00;;
60851;SDS011;48553;50.766;2.900;2024-02-21T12:20:25;10.35;;;4.80;;
60851;SDS011;48553;50.766;2.900;2024-02-21T12:23:26;9.50;;;4.68;;
60851;SDS011;48553;50.766;2.900;2024-02-21T12:26:27;9.27;;;4.20;;
60851;SDS011;48553;50.766;2.900;2024-02-21T12:29:27;7.60;;;4.20;;
60851;SDS011;48553;50.766;2.900;2024-02-21T12:32:30;8.15;;;4.10;;
60851;SDS011;48553;50.766;2.900;2024-02-21T12:35:30;9.60;;;4.07;;
60851;SDS011;48553;50.766;2.900;2024-02-21T12:38:33;7.10;;;3.90;;
60851;SDS011;48553;50.766;2.900;2024-02-21T12:41:33;6.85;;;4.03;;
60851;SDS011;48553;50.766;2.900;2024-02-21T12:44:35;7.20;;;3.70;;
60851;SDS011;48553;50.766;2.900;2024-02-21T12:47:35;8.05;;;3.90;;
60851;SDS011;48553;50.766;2.900;2024-02-21T12:50:36;8.15;;;3.90;;
60851;SDS011;48553;50.766;2.900;2024-02-21T12:53:36;7.28;;;3.70;;
60851;SDS011;48553;50.766;2.900;2024-02-21T12:56:37;7.05;;;3.50;;
60851;SDS011;48553;50.766;2.900;2024-02-21T12:59:37;6.85;;;3.83;;
60851;SDS011;48553;50.766;2.900;2024-02-21T13:02:38;9.18;;;4.35;;
60851;SDS011;48553;50.766;2.900;2024-02-21T13:05:38;7.88;;;4.00;;
60851;SDS011;48553;50.766;2.900;2024-02-21T13:08:39;9.68;;;4.25;;
60851;SDS011;48553;50.766;2.900;2024-02-21T13:11:40;7.90;;;4.18;;
60851;SDS011;48553;50.766;2.900;2024-02-21T13:14:42;7.00;;;4.03;;
60851;SDS011;48553;50.766;2.900;2024-02-21T13:17:44;8.88;;;3.80;;
60851;SDS011;48553;50.766;2.900;2024-02-21T13:20:44;7.57;;;4.00;;
60851;SDS011;48553;50.766;2.900;2024-02-21T13:23:45;12.32;;;4.40;;
60851;SDS011;48553;50.766;2.900;2024-02-21T13:26:45;9.35;;;4.68;;
60851;SDS011;48553;50.766;2.900;2024-02-21T13:29:45;7.95;;;4.18;;
60851;SDS011;48553;50.766;2.900;2024-02-21T13:32:46;9.63;;;4.45;;
60851;SDS011;48553;50.766;2.900;2024-02-21T13:35:46;8.63;;;4.32;;
60851;SDS011;48553;50.766;2.900;2024-02-21T13:38:47;8.98;;;4.45;;
60851;SDS011;48553;50.766;2.900;2024-02-21T13:41:47;9.73;;;4.80;;
60851;SDS011;48553;50.766;2.900;2024-02-21T13:44:48;8.18;;;4.47;;
60851;SDS011;48553;50.766;2.900;2024-02-21T13:47:48;10.95;;;4.90;;
60851;SDS011;48553;50.766;2.900;2024-02-21T13:50:49;11.13;;;4.88;;
60851;SDS011;48553;50.766;2.900;2024-02-21T13:53:49;10.32;;;5.10;;
60851;SDS011;48553;50.766;2.900;2024-02-21T13:56:49;11.68;;;5.25;;
60851;SDS011;48553;50.766;2.900;2024-02-21T13:59:50;12.23;;;5.50;;
60851;SDS011;48553;50.766;2.900;2024-02-21T14:02:51;8.85;;;4.43;;
60851;SDS011;48553;50.766;2.900;2024-02-21T14:05:51;9.48;;;5.13;;
60851;SDS011;48553;50.766;2.900;2024-02-21T14:08:52;8.57;;;4.43;;
60851;SDS011;48553;50.766;2.900;2024-02-21T14:11:54;11.23;;;5.28;;
60851;SDS011;48553;50.766;2.900;2024-02-21T14:14:54;10.05;;;5.00;;
60851;SDS011;48553;50.766;2.900;2024-02-21T14:17:58;13.57;;;5.70;;
60851;SDS011;48553;50.766;2.900;2024-02-21T14:20:59;9.15;;;4.78;;
60851;SDS011;48553;50.766;2.900;2024-02-21T14:23:59;10.05;;;4.88;;
60851;SDS011;48553;50.766;2.900;2024-02-21T14:27:03;10.52;;;4.93;;
60851;SDS011;48553;50.766;2.900;2024-02-21T14:30:04;10.80;;;5.30;;
60851;SDS011;48553;50.766;2.900;2024-02-21T14:33:05;10.32;;;5.10;;
60851;SDS011;48553;50.766;2.900;2024-02-21T14:36:07;12.55;;;5.07;;
60851;SDS011;48553;50.766;2.900;2024-02-21T14:39:08;9.25;;;5.00;;
60851;SDS011;48553;50.766;2.900;2024-02-21T14:42:09;10.35;;;5.15;;
60851;SDS011;48553;50.766;2.900;2024-02-21T14:45:12;12.18;;;5.45;;
60851;SDS011;48553;50.766;2.900;2024-02-21T14:48:13;11.45;;;5.07;;
60851;SDS011;48553;50.766;2.900;2024-02-21T14:51:14;12.38;;;5.30;;
60851;SDS011;48553;50.766;2.900;2024-02-21T14:54:15;9.35;;;5.00;;
60851;SDS011;48553;50.766;2.900;2024-02-21T14:57:15;11.32;;;5.13;;
60851;SDS011;48553;50.766;2.900;2024-02-21T15:00:16;8.88;;;5.18;;
60851;SDS011;48553;50.766;2.900;2024-02-21T15:03:17;10.73;;;5.10;;
60851;SDS011;48553;50.766;2.900;2024-02-21T15:06:20;11.68;;;5.18;;
60851;SDS011;48553;50.766;2.900;2024-02-21T15:09:21;8.80;;;4.40;;
60851;SDS011;48553;50.766;2.900;2024-02-21T15:12:21;12.02;;;4.47;;
60851;SDS011;48553;50.766;2.900;2024-02-21T15:15:23;9.02;;;4.68;;
60851;SDS011;48553;50.766;2.900;2024-02-21T15:18:23;11.38;;;4.53;;
60851;SDS011;48553;50.766;2.900;2024-02-21T15:24:27;9.30;;;4.10;;
60851;SDS011;48553;50.766;2.900;2024-02-21T15:27:27;8.50;;;4.10;;
60851;SDS011;48553;50.766;2.900;2024-02-21T15:30:28;8.35;;;3.92;;
60851;SDS011;48553;50.766;2.900;2024-02-21T15:33:31;11.38;;;4.32;;
60851;SDS011;48553;50.766;2.900;2024-02-21T15:36:32;9.52;;;3.95;;
60851;SDS011;48553;50.766;2.900;2024-02-21T15:39:32;7.78;;;4.00;;
60851;SDS011;48553;50.766;2.900;2024-02-21T15:42:33;10.00;;;4.22;;
60851;SDS011;48553;50.766;2.900;2024-02-21T15:45:34;8.32;;;4.20;;
60851;SDS011;48553;50.766;2.900;2024-02-21T15:48:34;10.13;;;3.92;;
60851;SDS011;48553;50.766;2.900;2024-02-21T15:51:34;9.05;;;4.10;;
60851;SDS011;48553;50.766;2.900;2024-02-21T15:54:36;9.10;;;3.95;;
60851;SDS011;48553;50.766;2.900;2024-02-21T15:57:36;9.43;;;3.80;;
60851;SDS011;48553;50.766;2.900;2024-02-21T16:00:37;8.00;;;3.83;;
60851;SDS011;48553;50.766;2.900;2024-02-21T16:03:38;8.35;;;3.70;;
60851;SDS011;48553;50.766;2.900;2024-02-21T16:06:40;8.80;;;3.75;;
60851;SDS011;48553;50.766;2.900;2024-02-21T16:09:41;9.85;;;3.85;;
60851;SDS011;48553;50.766;2.900;2024-02-21T16:12:44;10.80;;;3.85;;
60851;SDS011;48553;50.766;2.900;2024-02-21T16:15:44;8.45;;;3.83;;
60851;SDS011;48553;50.766;2.900;2024-02-21T16:18:46;7.60;;;3.78;;
60851;SDS011;48553;50.766;2.900;2024-02-21T16:21:47;6.90;;;3.22;;
60851;SDS011;48553;50.766;2.900;2024-02-21T16:24:47;8.27;;;4.10;;
60851;SDS011;48553;50.766;2.900;2024-02-21T16:27:49;6.43;;;3.60;;
60851;SDS011;48553;50.766;2.900;2024-02-21T16:30:49;6.13;;;3.50;;
60851;SDS011;48553;50.766;2.900;2024-02-21T16:33:50;6.47;;;3.67;;
60851;SDS011;48553;50.766;2.900;2024-02-21T16:36:50;7.28;;;3.78;;
60851;SDS011;48553;50.766;2.900;2024-02-21T16:39:51;7.65;;;3.50;;
60851;SDS011;48553;50.766;2.900;2024-02-21T16:42:52;6.88;;;3.40;;
60851;SDS011;48553;50.766;2.900;2024-02-21T16:45:53;7.70;;;3.22;;
60851;SDS011;48553;50.766;2.900;2024-02-21T16:48:53;6.65;;;3.53;;
60851;SDS011;48553;50.766;2.900;2024-02-21T16:51:53;8.13;;;3.50;;
60851;SDS011;48553;50.766;2.900;2024-02-21T16:54:54;7.38;;;3.67;;
60851;SDS011;48553;50.766;2.900;2024-02-21T16:57:56;6.53;;;3.28;;
60851;SDS011;48553;50.766;2.900;2024-02-21T17:00:57;6.82;;;3.20;;
60851;SDS011;48553;50.766;2.900;2024-02-21T17:04:00;7.28;;;3.67;;
60851;SDS011;48553;50.766;2.900;2024-02-21T17:07:00;6.50;;;3.53;;
60851;SDS011;48553;50.766;2.900;2024-02-21T17:10:01;6.63;;;3.60;;
60851;SDS011;48553;50.766;2.900;2024-02-21T17:13:05;6.72;;;3.22;;
60851;SDS011;48553;50.766;2.900;2024-02-21T17:16:05;7.28;;;3.30;;
60851;SDS011;48553;50.766;2.900;2024-02-21T17:19:06;5.07;;;3.15;;
60851;SDS011;48553;50.766;2.900;2024-02-21T17:22:07;5.40;;;3.30;;
60851;SDS011;48553;50.766;2.900;2024-02-21T17:25:07;6.18;;;3.10;;
60851;SDS011;48553;50.766;2.900;2024-02-21T17:28:12;7.97;;;3.05;;
60851;SDS011;48553;50.766;2.900;2024-02-21T17:31:12;6.20;;;3.40;;
60851;SDS011;48553;50.766;2.900;2024-02-21T17:34:13;6.50;;;3.08;;
60851;SDS011;48553;50.766;2.900;2024-02-21T17:37:13;6.60;;;3.22;;
60851;SDS011;48553;50.766;2.900;2024-02-21T17:40:14;6.20;;;3.67;;
60851;SDS011;48553;50.766;2.900;2024-02-21T17:43:14;5.50;;;3.10;;
60851;SDS011;48553;50.766;2.900;2024-02-21T17:46:15;6.20;;;2.88;;
60851;SDS011;48553;50.766;2.900;2024-02-21T17:49:15;5.57;;;2.75;;
60851;SDS011;48553;50.766;2.900;2024-02-21T17:52:16;5.53;;;3.05;;
60851;SDS011;48553;50.766;2.900;2024-02-21T17:55:16;7.18;;;2.85;;
60851;SDS011;48553;50.766;2.900;2024-02-21T17:58:17;5.32;;;2.90;;
60851;SDS011;48553;50.766;2.900;2024-02-21T18:01:18;5.00;;;2.85;;
60851;SDS011;48553;50.766;2.900;2024-02-21T18:04:18;5.15;;;3.00;;
60851;SDS011;48553;50.766;2.900;2024-02-21T18:07:19;4.82;;;2.63;;
60851;SDS011;48553;50.766;2.900;2024-02-21T18:10:23;9.55;;;3.10;;
60851;SDS011;48553;50.766;2.900;2024-02-21T18:13:24;6.68;;;2.70;;